Time;durP1;ratioP1;P1;durP2;ratioP2;P2;SDS_P1;SDS_P2;PMS_P1;PMS_P2;Temp;Humidity;BMP_temperature;BMP_pressure;BME280_temperature;BME280_humidity;BME280_pressure;Samples;Min_cycle;Max_cycle;Signal;HPM_P1;HPM_P2
2021/12/21 00:00:26;;;;;;;30.98;14.80;;;;;;;;;;5128380;28;20041;-73
2021/12/21 00:03:03;;;;;;;27.17;14.32;;;;;;;;;;5128772;28;20023;-73
2021/12/21 00:05:30;;;;;;;28.90;14.88;;;;;;;;;;5129259;27;20031;-73
2021/12/21 00:08:00;;;;;;;29.80;15.60;;;;;;;;;;5132185;27;20027;-73
2021/12/21 00:10:28;;;;;;;30.35;14.70;;;;;;;;;;5133436;27;20030;-73
2021/12/21 00:15:53;;;;;;;25.90;13.77;;;;;;;;;;5132050;27;20507;-73
2021/12/21 00:20:55;;;;;;;30.13;15.63;;;;;;;;;;5131715;27;20023;-73
2021/12/21 00:26:21;;;;;;;34.97;15.65;;;;;;;;;;5131778;27;20426;-73
2021/12/21 00:31:21;;;;;;;61.17;24.90;;;;;;;;;;5134003;27;20031;-73
2021/12/21 00:33:48;;;;;;;62.03;25.23;;;;;;;;;;5133238;27;20038;-73
2021/12/21 00:36:16;;;;;;;40.78;18.58;;;;;;;;;;5131835;27;20030;-73
2021/12/21 00:38:44;;;;;;;42.55;18.90;;;;;;;;;;5131664;27;20027;-73
2021/12/21 00:41:13;;;;;;;31.38;14.98;;;;;;;;;;5131768;27;20022;-73
2021/12/21 00:43:40;;;;;;;27.02;14.15;;;;;;;;;;5131681;27;20051;-73
2021/12/21 00:46:07;;;;;;;26.77;14.38;;;;;;;;;;5134441;27;20039;-73
2021/12/21 00:48:35;;;;;;;24.67;13.88;;;;;;;;;;5131612;27;20374;-73
2021/12/21 00:51:03;;;;;;;24.38;13.80;;;;;;;;;;5113057;27;20493;-73
2021/12/21 00:53:35;;;;;;;25.77;14.35;;;;;;;;;;5131414;27;20090;-73
2021/12/21 00:56:01;;;;;;;26.92;13.40;;;;;;;;;;5132840;27;20386;-73
2021/12/21 00:58:27;;;;;;;33.47;15.68;;;;;;;;;;5132987;27;20018;-73
2021/12/21 01:00:54;;;;;;;31.52;14.65;;;;;;;;;;5134768;27;20060;-73
2021/12/21 01:03:20;;;;;;;28.27;13.75;;;;;;;;;;5129766;27;20489;-73
2021/12/21 01:05:54;;;;;;;25.05;12.77;;;;;;;;;;5131036;27;20083;-72
2021/12/21 01:08:25;;;;;;;23.30;12.45;;;;;;;;;;5131098;27;20489;-72
2021/12/21 01:16:30;;;;;;;74.80;33.17;;;;;;;;;;5130344;27;20023;-73
2021/12/21 01:21:27;;;;;;;56.65;25.30;;;;;;;;;;5130871;27;20485;-73
2021/12/21 01:28:55;;;;;;;49.08;18.10;;;;;;;;;;5130818;27;20024;-73
2021/12/21 01:39:56;;;;;;;26.08;13.02;;;;;;;;;;5130305;27;20023;-73
2021/12/21 01:42:10;;;;;;;24.17;12.93;;;;;;;;;;5122352;27;20035;-73
2021/12/21 01:49:50;;;;;;;42.10;16.85;;;;;;;;;;5116187;27;20015;-73
2021/12/21 01:52:18;;;;;;;55.17;21.17;;;;;;;;;;5132718;27;20056;-72
2021/12/21 01:54:44;;;;;;;47.55;17.95;;;;;;;;;;5131577;27;20023;-73
2021/12/21 01:57:12;;;;;;;48.33;17.33;;;;;;;;;;5130064;27;20401;-73
2021/12/21 01:59:38;;;;;;;33.70;14.43;;;;;;;;;;5130118;27;20023;-73
2021/12/21 02:02:05;;;;;;;32.47;14.05;;;;;;;;;;5129959;27;20031;-73
2021/12/21 02:04:32;;;;;;;42.85;16.52;;;;;;;;;;5113924;28;20489;-73
2021/12/21 02:06:58;;;;;;;38.13;15.18;;;;;;;;;;5133176;27;20031;-73
2021/12/21 02:09:33;;;;;;;42.42;16.00;;;;;;;;;;5130147;27;20019;-73
2021/12/21 02:11:59;;;;;;;36.50;14.00;;;;;;;;;;5130234;27;20045;-73
2021/12/21 02:14:25;;;;;;;26.67;12.68;;;;;;;;;;5131111;27;20030;-73
2021/12/21 02:19:58;;;;;;;25.30;13.32;;;;;;;;;;5034469;28;20030;-73
2021/12/21 02:22:27;;;;;;;27.60;12.77;;;;;;;;;;5048492;28;20041;-74
2021/12/21 02:25:21;;;;;;;37.80;16.40;;;;;;;;;;5049955;28;20593;-73
2021/12/21 02:27:57;;;;;;;23.13;11.55;;;;;;;;;;5047491;28;20040;-73
2021/12/21 02:30:24;;;;;;;47.15;18.00;;;;;;;;;;5048048;28;20043;-73
2021/12/21 02:32:51;;;;;;;32.55;14.50;;;;;;;;;;5048266;28;20499;-73
2021/12/21 02:35:18;;;;;;;24.80;11.77;;;;;;;;;;5047924;28;20039;-73
2021/12/21 02:37:44;;;;;;;24.30;12.18;;;;;;;;;;5047901;28;20033;-73
2021/12/21 02:40:11;;;;;;;21.80;10.98;;;;;;;;;;5049054;28;20025;-73
2021/12/21 02:42:37;;;;;;;21.33;10.68;;;;;;;;;;5048712;28;20428;-73
2021/12/21 02:45:05;;;;;;;24.65;11.27;;;;;;;;;;5047243;28;20043;-73
2021/12/21 02:47:31;;;;;;;26.42;11.52;;;;;;;;;;5047880;28;20037;-73
2021/12/21 02:49:59;;;;;;;18.83;9.43;;;;;;;;;;5047756;28;20039;-73
2021/12/21 02:52:25;;;;;;;21.92;11.43;;;;;;;;;;5047243;28;20539;-73
2021/12/21 02:54:51;;;;;;;22.15;12.02;;;;;;;;;;5048674;28;20025;-73
2021/12/21 02:57:18;;;;;;;23.80;11.30;;;;;;;;;;5105371;28;20048;-73
2021/12/21 02:59:44;;;;;;;31.95;14.20;;;;;;;;;;5107281;28;20423;-73
2021/12/21 03:02:10;;;;;;;23.70;11.93;;;;;;;;;;5108674;28;20030;-73
2021/12/21 03:04:37;;;;;;;32.70;14.13;;;;;;;;;;5107592;28;20018;-73
2021/12/21 03:09:38;;;;;;;19.67;9.18;;;;;;;;;;5109197;28;20024;-73
2021/12/21 03:14:35;;;;;;;20.25;10.00;;;;;;;;;;5108112;28;20027;-73
2021/12/21 03:17:02;;;;;;;15.73;8.75;;;;;;;;;;5108622;28;20109;-73
2021/12/21 03:19:28;;;;;;;15.60;8.75;;;;;;;;;;5109362;28;20375;-73
2021/12/21 03:21:55;;;;;;;13.93;8.27;;;;;;;;;;5111423;28;20012;-72
2021/12/21 03:24:21;;;;;;;16.00;8.68;;;;;;;;;;5108798;28;20024;-73
2021/12/21 03:26:47;;;;;;;18.70;9.07;;;;;;;;;;5108175;28;20494;-72
2021/12/21 03:29:14;;;;;;;18.33;8.70;;;;;;;;;;5108361;28;20027;-73
2021/12/21 03:31:40;;;;;;;18.65;9.63;;;;;;;;;;5109927;28;20028;-72
2021/12/21 03:34:07;;;;;;;18.92;9.38;;;;;;;;;;5111536;28;20028;-73
2021/12/21 03:36:33;;;;;;;18.38;10.13;;;;;;;;;;5109025;28;20038;-72
2021/12/21 03:39:05;;;;;;;20.75;9.25;;;;;;;;;;5109439;28;20011;-73
2021/12/21 03:41:32;;;;;;;20.48;9.98;;;;;;;;;;5112175;28;20586;-73
2021/12/21 03:44:01;;;;;;;17.17;9.15;;;;;;;;;;5120828;27;20038;-73
2021/12/21 03:46:32;;;;;;;18.30;9.18;;;;;;;;;;5115348;27;20401;-73
2021/12/21 03:49:04;;;;;;;20.27;9.73;;;;;;;;;;5136145;27;20380;-73
2021/12/21 03:51:30;;;;;;;18.15;9.02;;;;;;;;;;5134922;27;20023;-73
2021/12/21 03:53:57;;;;;;;15.40;8.65;;;;;;;;;;5132515;27;20078;-72
2021/12/21 03:56:40;;;;;;;17.85;8.82;;;;;;;;;;5131838;27;20079;-73
2021/12/21 03:59:07;;;;;;;12.88;7.45;;;;;;;;;;5132385;27;20490;-73
2021/12/21 04:01:33;;;;;;;16.08;8.10;;;;;;;;;;5133017;27;20063;-73
2021/12/21 04:04:00;;;;;;;15.02;8.27;;;;;;;;;;5135872;27;20025;-73
2021/12/21 04:06:26;;;;;;;14.85;8.23;;;;;;;;;;5132081;27;20061;-73
2021/12/21 04:08:53;;;;;;;16.75;8.18;;;;;;;;;;5132402;27;20012;-72
2021/12/21 04:11:19;;;;;;;20.52;9.43;;;;;;;;;;5133223;27;20039;-73
2021/12/21 04:13:45;;;;;;;16.52;8.45;;;;;;;;;;5132289;27;20016;-72
2021/12/21 04:16:12;;;;;;;13.60;7.60;;;;;;;;;;5135138;27;20042;-73
2021/12/21 04:18:39;;;;;;;19.40;8.50;;;;;;;;;;5133119;27;20015;-73
2021/12/21 04:21:09;;;;;;;14.65;7.32;;;;;;;;;;5132016;27;20035;-73
2021/12/21 04:23:35;;;;;;;24.20;10.85;;;;;;;;;;5132049;27;20549;-73
2021/12/21 04:26:02;;;;;;;27.80;11.02;;;;;;;;;;5131392;27;20412;-73
2021/12/21 04:28:28;;;;;;;21.88;11.02;;;;;;;;;;5114493;27;20026;-71
2021/12/21 04:30:54;;;;;;;25.60;10.98;;;;;;;;;;5134559;27;20035;-71
2021/12/21 04:33:20;;;;;;;26.70;13.27;;;;;;;;;;5131787;27;20487;-73
2021/12/21 04:35:47;;;;;;;30.27;13.00;;;;;;;;;;5131756;27;20426;-72
2021/12/21 04:38:25;;;;;;;32.50;13.52;;;;;;;;;;5131657;27;20023;-73
2021/12/21 04:41:01;;;;;;;28.73;13.50;;;;;;;;;;5131815;27;20015;-73
2021/12/21 04:43:28;;;;;;;38.05;16.00;;;;;;;;;;5132386;27;20061;-72
2021/12/21 04:45:54;;;;;;;40.53;17.45;;;;;;;;;;5134162;27;20027;-73
2021/12/21 04:48:21;;;;;;;45.17;17.83;;;;;;;;;;5131440;27;20031;-72
2021/12/21 04:50:47;;;;;;;41.72;16.23;;;;;;;;;;5132298;27;20011;-73
2021/12/21 04:53:14;;;;;;;36.75;14.70;;;;;;;;;;5131488;27;20396;-72
2021/12/21 04:55:40;;;;;;;34.08;12.73;;;;;;;;;;5131260;27;20018;-73
2021/12/21 04:58:07;;;;;;;33.28;14.85;;;;;;;;;;5115709;27;20526;-73
2021/12/21 05:00:33;;;;;;;43.25;16.42;;;;;;;;;;5132210;27;20035;-72
2021/12/21 05:03:00;;;;;;;36.28;16.02;;;;;;;;;;5131217;27;20389;-72
2021/12/21 05:05:26;;;;;;;28.17;13.30;;;;;;;;;;5131058;27;20220;-73
2021/12/21 05:08:06;;;;;;;26.75;11.82;;;;;;;;;;5131165;27;20528;-73
2021/12/21 05:10:43;;;;;;;24.45;10.63;;;;;;;;;;5114848;27;20040;-73
2021/12/21 05:13:10;;;;;;;17.95;9.50;;;;;;;;;;5130506;27;20020;-73
2021/12/21 05:15:36;;;;;;;18.67;8.68;;;;;;;;;;5132032;27;20027;-73
2021/12/21 05:18:02;;;;;;;23.65;9.15;;;;;;;;;;5131102;27;20023;-73
2021/12/21 05:20:29;;;;;;;15.73;8.70;;;;;;;;;;5130948;27;20027;-73
2021/12/21 05:22:55;;;;;;;14.98;8.27;;;;;;;;;;5095810;27;20029;-72
2021/12/21 05:25:22;;;;;;;16.27;8.30;;;;;;;;;;5132218;27;20396;-73
2021/12/21 05:27:48;;;;;;;16.30;7.68;;;;;;;;;;5132459;27;20499;-73
2021/12/21 05:30:14;;;;;;;15.77;7.90;;;;;;;;;;5113732;27;20033;-72
2021/12/21 05:32:41;;;;;;;15.43;7.10;;;;;;;;;;5130671;27;20024;-72
2021/12/21 05:35:08;;;;;;;14.65;7.30;;;;;;;;;;5130713;27;20019;-73
2021/12/21 05:37:35;;;;;;;15.38;7.78;;;;;;;;;;5130377;27;20019;-73
2021/12/21 05:40:12;;;;;;;15.10;7.82;;;;;;;;;;5134100;27;20351;-72
2021/12/21 05:42:38;;;;;;;14.63;7.85;;;;;;;;;;5133191;27;20050;-73
2021/12/21 05:45:05;;;;;;;17.80;6.82;;;;;;;;;;5130212;27;20051;-73
2021/12/21 05:47:32;;;;;;;17.67;8.35;;;;;;;;;;5130259;27;20374;-73
2021/12/21 05:49:59;;;;;;;19.73;8.35;;;;;;;;;;5130322;27;20026;-73
2021/12/21 05:52:25;;;;;;;16.90;8.70;;;;;;;;;;5131343;27;20079;-73
2021/12/21 05:54:51;;;;;;;15.68;8.15;;;;;;;;;;5132785;27;20024;-73
2021/12/21 05:57:18;;;;;;;17.98;9.45;;;;;;;;;;5130198;27;20030;-72
2021/12/21 05:59:44;;;;;;;19.30;8.50;;;;;;;;;;5111680;27;20075;-73
2021/12/21 06:02:11;;;;;;;18.60;9.45;;;;;;;;;;5129715;27;20050;-72
2021/12/21 06:04:37;;;;;;;26.25;14.68;;;;;;;;;;5129614;27;20021;-73
2021/12/21 06:07:03;;;;;;;20.10;9.07;;;;;;;;;;5114724;27;20050;-72
2021/12/21 06:09:31;;;;;;;16.92;8.27;;;;;;;;;;5114985;27;20027;-72
2021/12/21 06:12:14;;;;;;;18.67;9.63;;;;;;;;;;5129803;27;20423;-72
2021/12/21 06:25:53;;;;;;;13.88;8.18;;;;;;;;;;5129209;27;20019;-72
2021/12/21 06:27:53;;;;;;;23.92;13.07;;;;;;;;;;5126099;27;20087;-74
2021/12/21 06:30:19;;;;;;;21.42;10.43;;;;;;;;;;5129834;27;20031;-73
2021/12/21 06:32:46;;;;;;;14.98;8.35;;;;;;;;;;5129854;27;20015;-74
2021/12/21 06:35:12;;;;;;;17.08;7.38;;;;;;;;;;5129361;27;20057;-73
2021/12/21 06:37:39;;;;;;;14.63;6.93;;;;;;;;;;5129203;27;20032;-74
2021/12/21 06:40:05;;;;;;;16.55;7.38;;;;;;;;;;5132534;27;20377;-73
2021/12/21 06:42:32;;;;;;;18.20;8.38;;;;;;;;;;5111441;27;20031;-74
2021/12/21 06:45:00;;;;;;;17.15;9.02;;;;;;;;;;5129295;27;20039;-74
2021/12/21 06:52:57;;;;;;;24.38;10.77;;;;;;;;;;5129609;27;20504;-73
2021/12/21 06:55:23;;;;;;;23.27;13.32;;;;;;;;;;5130885;28;20025;-73
2021/12/21 06:57:49;;;;;;;28.75;14.63;;;;;;;;;;5131265;28;20465;-73
2021/12/21 07:00:17;;;;;;;23.00;12.65;;;;;;;;;;5129481;28;20022;-73
2021/12/21 07:02:43;;;;;;;20.83;11.40;;;;;;;;;;5129200;28;20027;-73
2021/12/21 07:05:10;;;;;;;17.75;9.82;;;;;;;;;;5129277;28;20016;-73
2021/12/21 07:07:37;;;;;;;13.65;8.00;;;;;;;;;;5129160;28;20485;-73
2021/12/21 07:10:07;;;;;;;13.48;7.57;;;;;;;;;;5132761;28;20030;-73
2021/12/21 07:20:22;;;;;;;33.65;17.35;;;;;;;;;;5132958;27;20053;-73
2021/12/21 07:22:48;;;;;;;29.17;11.57;;;;;;;;;;5133269;27;20492;-74
2021/12/21 07:25:14;;;;;;;24.30;12.32;;;;;;;;;;5135618;27;20019;-74
2021/12/21 07:27:41;;;;;;;30.15;14.20;;;;;;;;;;5135906;27;20486;-74
2021/12/21 07:30:08;;;;;;;31.02;13.48;;;;;;;;;;5133384;27;20022;-73
2021/12/21 07:32:34;;;;;;;24.17;12.35;;;;;;;;;;5133139;27;20404;-73
2021/12/21 07:35:01;;;;;;;19.10;10.38;;;;;;;;;;5132778;27;20487;-73
2021/12/21 07:37:27;;;;;;;26.55;11.93;;;;;;;;;;5133630;27;20023;-74
2021/12/21 07:39:53;;;;;;;48.15;18.50;;;;;;;;;;5132503;27;20039;-74
2021/12/21 07:42:20;;;;;;;33.22;16.20;;;;;;;;;;5132921;27;20027;-74
2021/12/21 07:44:47;;;;;;;32.92;13.73;;;;;;;;;;5132586;27;20041;-74
2021/12/21 07:47:13;;;;;;;30.30;14.05;;;;;;;;;;5132403;27;20031;-73
2021/12/21 07:49:40;;;;;;;44.08;20.08;;;;;;;;;;5132346;27;20011;-74
2021/12/21 07:52:07;;;;;;;43.50;24.08;;;;;;;;;;5135610;27;20035;-73
2021/12/21 07:54:34;;;;;;;37.53;20.65;;;;;;;;;;5128623;27;20027;-74
2021/12/21 07:57:00;;;;;;;49.60;25.15;;;;;;;;;;5131743;27;20477;-73
2021/12/21 07:59:26;;;;;;;45.42;21.88;;;;;;;;;;5132863;27;20051;-73
2021/12/21 08:01:53;;;;;;;37.38;18.75;;;;;;;;;;5132312;27;20028;-73
2021/12/21 08:04:26;;;;;;;48.95;22.92;;;;;;;;;;5133347;27;20019;-73
2021/12/21 08:06:53;;;;;;;37.45;16.45;;;;;;;;;;5133137;27;20489;-73
2021/12/21 08:09:20;;;;;;;37.10;17.27;;;;;;;;;;5131533;27;20038;-73
2021/12/21 08:14:31;;;;;;;27.70;13.85;;;;;;;;;;5133511;27;20481;-73
2021/12/21 08:16:58;;;;;;;23.45;11.70;;;;;;;;;;5131807;27;20029;-74
2021/12/21 08:19:24;;;;;;;17.00;8.07;;;;;;;;;;5132759;27;20115;-73
2021/12/21 08:21:50;;;;;;;16.95;8.63;;;;;;;;;;5133769;27;20404;-73
2021/12/21 08:24:17;;;;;;;17.88;7.18;;;;;;;;;;5112955;27;20466;-74
2021/12/21 08:26:43;;;;;;;12.05;6.82;;;;;;;;;;5130377;27;20035;-74
2021/12/21 08:29:09;;;;;;;11.43;6.70;;;;;;;;;;5131893;27;20018;-74
2021/12/21 08:31:35;;;;;;;14.55;7.45;;;;;;;;;;5131753;27;20019;-74
2021/12/21 08:34:02;;;;;;;13.55;6.75;;;;;;;;;;5134959;27;20488;-74
2021/12/21 08:36:28;;;;;;;12.98;7.50;;;;;;;;;;5113335;27;20031;-74
2021/12/21 08:38:55;;;;;;;12.02;7.10;;;;;;;;;;5131596;27;20015;-73
2021/12/21 08:41:23;;;;;;;14.00;7.65;;;;;;;;;;5131579;27;20123;-74
2021/12/21 08:43:50;;;;;;;18.38;8.20;;;;;;;;;;5132773;27;20027;-73
2021/12/21 08:46:16;;;;;;;18.50;9.02;;;;;;;;;;5133487;27;20111;-74
2021/12/21 08:48:43;;;;;;;19.33;9.80;;;;;;;;;;5113971;27;20569;-74
2021/12/21 08:51:09;;;;;;;14.63;9.15;;;;;;;;;;5131119;27;20019;-74
2021/12/21 08:53:42;;;;;;;14.88;6.50;;;;;;;;;;5112808;27;20016;-74
2021/12/21 08:56:08;;;;;;;11.00;6.75;;;;;;;;;;5131130;27;20076;-75
2021/12/21 08:58:35;;;;;;;11.38;6.28;;;;;;;;;;5131238;27;20038;-73
2021/12/21 09:01:01;;;;;;;10.85;6.43;;;;;;;;;;5134353;27;20031;-74
2021/12/21 09:03:27;;;;;;;13.20;6.97;;;;;;;;;;5130868;27;20492;-73
2021/12/21 09:05:54;;;;;;;11.43;6.75;;;;;;;;;;5130806;27;20067;-73
2021/12/21 09:08:20;;;;;;;10.70;6.53;;;;;;;;;;5112332;27;20043;-73
2021/12/21 09:10:47;;;;;;;12.38;6.03;;;;;;;;;;5130960;27;20020;-73
2021/12/21 09:13:14;;;;;;;9.63;5.97;;;;;;;;;;5133159;27;20034;-73
2021/12/21 09:15:40;;;;;;;12.85;6.72;;;;;;;;;;5131040;27;20035;-73
2021/12/21 09:18:07;;;;;;;10.15;6.22;;;;;;;;;;5131007;27;20022;-73
2021/12/21 09:20:33;;;;;;;9.65;5.80;;;;;;;;;;5130661;27;20042;-72
2021/12/21 09:23:00;;;;;;;7.47;4.95;;;;;;;;;;5131943;27;20025;-73
2021/12/21 09:25:27;;;;;;;6.70;4.60;;;;;;;;;;5131953;27;20033;-73
2021/12/21 09:27:54;;;;;;;8.30;5.50;;;;;;;;;;5132886;27;20050;-73
2021/12/21 09:30:21;;;;;;;9.30;5.38;;;;;;;;;;5112089;27;20031;-73
2021/12/21 09:32:48;;;;;;;9.48;6.53;;;;;;;;;;5130796;27;20019;-73
2021/12/21 09:35:14;;;;;;;12.45;6.88;;;;;;;;;;5129958;27;20031;-73
2021/12/21 09:37:40;;;;;;;12.05;6.97;;;;;;;;;;5130405;27;20015;-73
2021/12/21 09:40:09;;;;;;;10.77;6.05;;;;;;;;;;5133529;27;20039;-73
2021/12/21 09:42:36;;;;;;;9.48;6.20;;;;;;;;;;5112292;27;20050;-73
2021/12/21 09:45:03;;;;;;;8.82;5.97;;;;;;;;;;5129578;27;20519;-73
2021/12/21 09:47:31;;;;;;;9.50;6.20;;;;;;;;;;5130202;27;20031;-73
2021/12/21 09:49:58;;;;;;;13.02;6.80;;;;;;;;;;5130034;27;20069;-73
2021/12/21 09:52:29;;;;;;;11.55;5.80;;;;;;;;;;5131701;27;20091;-73
2021/12/21 09:54:58;;;;;;;8.85;5.53;;;;;;;;;;5132377;27;20433;-73
2021/12/21 09:57:25;;;;;;;18.10;5.78;;;;;;;;;;5130093;27;20101;-72
2021/12/21 09:59:52;;;;;;;13.35;5.60;;;;;;;;;;5111640;27;20019;-73
2021/12/21 10:02:20;;;;;;;12.98;5.07;;;;;;;;;;5131388;27;20375;-73
2021/12/21 10:04:48;;;;;;;8.13;5.55;;;;;;;;;;5129954;27;20064;-73
2021/12/21 10:07:15;;;;;;;11.57;5.82;;;;;;;;;;5132295;27;20076;-73
2021/12/21 10:09:43;;;;;;;12.82;5.65;;;;;;;;;;5130540;27;20500;-73
2021/12/21 10:12:28;;;;;;;10.52;6.03;;;;;;;;;;5111291;27;20020;-72
2021/12/21 10:15:05;;;;;;;10.45;6.55;;;;;;;;;;5129430;27;20031;-73
2021/12/21 10:17:33;;;;;;;13.52;6.65;;;;;;;;;;5129389;27;20064;-72
2021/12/21 10:20:00;;;;;;;15.45;8.55;;;;;;;;;;5129926;27;20341;-73
2021/12/21 10:22:27;;;;;;;19.17;9.00;;;;;;;;;;5130761;27;20007;-73
2021/12/21 10:24:53;;;;;;;14.57;8.65;;;;;;;;;;5132114;27;20027;-73
2021/12/21 10:27:22;;;;;;;15.38;9.77;;;;;;;;;;5128772;27;20039;-73
2021/12/21 10:29:56;;;;;;;18.20;11.25;;;;;;;;;;5128987;27;20523;-73
2021/12/21 10:32:24;;;;;;;16.23;9.93;;;;;;;;;;5129290;27;20049;-73
2021/12/21 10:35:01;;;;;;;21.60;11.70;;;;;;;;;;5129497;27;20019;-73
2021/12/21 10:37:31;;;;;;;21.73;12.10;;;;;;;;;;5112001;28;20074;-73
2021/12/21 10:40:09;;;;;;;19.90;12.43;;;;;;;;;;5132478;27;20031;-73
2021/12/21 10:42:49;;;;;;;22.60;12.05;;;;;;;;;;5129528;27;20023;-72
2021/12/21 10:45:23;;;;;;;19.45;12.98;;;;;;;;;;5110538;27;20049;-73
2021/12/21 10:47:49;;;;;;;17.33;10.88;;;;;;;;;;5129077;27;20043;-74
2021/12/21 10:50:16;;;;;;;15.13;8.23;;;;;;;;;;5128466;27;20016;-73
2021/12/21 10:52:47;;;;;;;15.50;10.13;;;;;;;;;;5129100;27;20030;-74
2021/12/21 10:55:14;;;;;;;15.35;9.48;;;;;;;;;;5131357;28;20031;-73
2021/12/21 10:57:40;;;;;;;14.07;9.10;;;;;;;;;;5130170;28;20072;-73
2021/12/21 11:00:14;;;;;;;16.92;8.85;;;;;;;;;;5129151;28;20435;-73
2021/12/21 11:02:41;;;;;;;16.13;9.90;;;;;;;;;;5128643;28;20037;-73
2021/12/21 11:05:17;;;;;;;14.43;9.52;;;;;;;;;;5128972;28;20022;-73
2021/12/21 11:10:13;;;;;;;10.13;6.38;;;;;;;;;;5131444;28;20019;-73
2021/12/21 11:12:43;;;;;;;13.48;7.65;;;;;;;;;;5129003;28;20035;-73
2021/12/21 11:15:11;;;;;;;10.10;7.10;;;;;;;;;;5126842;28;20019;-73
2021/12/21 11:17:38;;;;;;;8.18;5.57;;;;;;;;;;5128910;28;20055;-73
2021/12/21 11:20:04;;;;;;;10.20;6.15;;;;;;;;;;5112051;28;20396;-73
2021/12/21 11:22:32;;;;;;;10.27;6.28;;;;;;;;;;5129451;28;20516;-73
2021/12/21 11:24:59;;;;;;;9.13;5.95;;;;;;;;;;5132207;28;20045;-73
2021/12/21 11:27:27;;;;;;;8.60;4.65;;;;;;;;;;5128620;27;20035;-73
2021/12/21 11:29:57;;;;;;;7.03;5.05;;;;;;;;;;5128704;28;20026;-73
2021/12/21 11:32:24;;;;;;;7.07;4.60;;;;;;;;;;5128983;28;20038;-73
2021/12/21 11:37:45;;;;;;;9.60;5.38;;;;;;;;;;5044118;28;20037;-73
2021/12/21 11:40:13;;;;;;;9.55;6.10;;;;;;;;;;5031456;28;20034;-73
2021/12/21 11:42:43;;;;;;;7.47;5.63;;;;;;;;;;5032190;28;20603;-73
2021/12/21 11:45:15;;;;;;;9.63;5.68;;;;;;;;;;5032495;28;20045;-73
2021/12/21 11:47:52;;;;;;;7.90;5.32;;;;;;;;;;5036749;28;20037;-73
2021/12/21 11:50:18;;;;;;;8.80;5.68;;;;;;;;;;5042522;28;20037;-73
2021/12/21 11:52:49;;;;;;;10.73;6.22;;;;;;;;;;5012108;28;20033;-73
2021/12/21 11:55:16;;;;;;;10.27;4.80;;;;;;;;;;5030061;28;20037;-72
2021/12/21 11:57:44;;;;;;;9.40;5.00;;;;;;;;;;5033170;28;20041;-72
2021/12/21 12:00:14;;;;;;;9.38;6.07;;;;;;;;;;5033441;28;20025;-72
2021/12/21 12:02:42;;;;;;;9.32;5.80;;;;;;;;;;5036470;28;20088;-73
2021/12/21 12:05:19;;;;;;;9.15;5.28;;;;;;;;;;5035918;28;20395;-73
2021/12/21 12:07:45;;;;;;;8.88;5.40;;;;;;;;;;5033208;28;20045;-73
2021/12/21 12:10:15;;;;;;;8.00;5.63;;;;;;;;;;5035096;28;20087;-72
2021/12/21 12:12:42;;;;;;;6.47;5.05;;;;;;;;;;5035984;28;20114;-72
2021/12/21 12:15:10;;;;;;;11.43;5.82;;;;;;;;;;5107597;27;20039;-72
2021/12/21 12:17:49;;;;;;;9.30;5.95;;;;;;;;;;5132195;27;20019;-73
2021/12/21 12:20:16;;;;;;;7.55;5.45;;;;;;;;;;5132105;27;20485;-73
2021/12/21 12:22:43;;;;;;;8.82;5.05;;;;;;;;;;5131699;27;20012;-73
2021/12/21 12:25:26;;;;;;;8.23;5.55;;;;;;;;;;5134315;27;20523;-72
2021/12/21 12:27:53;;;;;;;8.20;5.75;;;;;;;;;;5133529;27;20076;-72
2021/12/21 12:30:21;;;;;;;9.35;6.20;;;;;;;;;;5131962;27;20023;-73
2021/12/21 12:32:48;;;;;;;8.70;5.35;;;;;;;;;;5132000;27;20029;-72
2021/12/21 12:35:19;;;;;;;8.32;5.45;;;;;;;;;;5131583;27;20023;-73
2021/12/21 12:37:53;;;;;;;9.35;5.40;;;;;;;;;;5133078;27;20511;-72
2021/12/21 12:40:21;;;;;;;7.85;5.00;;;;;;;;;;5133663;27;20029;-73
2021/12/21 12:42:58;;;;;;;10.75;4.93;;;;;;;;;;5132834;27;20034;-72
2021/12/21 12:45:26;;;;;;;6.95;5.15;;;;;;;;;;5131582;27;20035;-73
2021/12/21 12:47:53;;;;;;;7.32;5.00;;;;;;;;;;5131323;27;20031;-73
2021/12/21 12:50:24;;;;;;;9.45;5.10;;;;;;;;;;5131083;27;20507;-72
2021/12/21 12:52:50;;;;;;;7.25;4.85;;;;;;;;;;5112728;27;20044;-73
2021/12/21 12:55:17;;;;;;;8.90;4.78;;;;;;;;;;5133531;27;20023;-73
2021/12/21 12:57:51;;;;;;;9.90;5.07;;;;;;;;;;5132531;27;20027;-72
2021/12/21 13:00:21;;;;;;;10.38;5.32;;;;;;;;;;5131131;27;20063;-72
2021/12/21 13:02:51;;;;;;;7.03;4.85;;;;;;;;;;5130888;27;20031;-72
2021/12/21 13:05:18;;;;;;;8.10;4.87;;;;;;;;;;5130733;27;20833;-73
2021/12/21 13:07:44;;;;;;;7.25;5.07;;;;;;;;;;5128012;27;20679;-73
2021/12/21 13:10:11;;;;;;;7.50;5.07;;;;;;;;;;5132142;27;20095;-72
2021/12/21 13:12:38;;;;;;;7.43;4.88;;;;;;;;;;5130722;27;20031;-73
2021/12/21 13:15:06;;;;;;;7.70;5.45;;;;;;;;;;5118769;27;20032;-73
2021/12/21 13:17:32;;;;;;;9.50;6.07;;;;;;;;;;5122987;27;20023;-73
2021/12/21 13:19:59;;;;;;;9.43;5.95;;;;;;;;;;5129867;27;20378;-73
2021/12/21 13:22:26;;;;;;;11.40;6.82;;;;;;;;;;5130574;27;20039;-72
2021/12/21 13:24:53;;;;;;;9.23;6.53;;;;;;;;;;5130521;27;20035;-73
2021/12/21 13:27:21;;;;;;;9.73;6.57;;;;;;;;;;5129747;27;20041;-73
2021/12/21 13:29:49;;;;;;;13.13;6.88;;;;;;;;;;5129417;27;20011;-73
2021/12/21 13:32:17;;;;;;;12.00;7.30;;;;;;;;;;5130269;27;20031;-72
2021/12/21 13:34:45;;;;;;;14.90;7.05;;;;;;;;;;5129589;27;20023;-72
2021/12/21 13:37:13;;;;;;;12.80;6.43;;;;;;;;;;5131534;27;20437;-73
2021/12/21 13:39:39;;;;;;;9.48;6.90;;;;;;;;;;5132091;27;20025;-72
2021/12/21 13:42:06;;;;;;;12.00;6.75;;;;;;;;;;5129515;27;20030;-72
2021/12/21 13:44:34;;;;;;;13.40;7.18;;;;;;;;;;5129302;27;20049;-71
2021/12/21 13:47:03;;;;;;;13.15;8.07;;;;;;;;;;5129359;27;20041;-72
2021/12/21 13:49:29;;;;;;;15.77;8.88;;;;;;;;;;5113804;27;20379;-72
2021/12/21 13:51:57;;;;;;;20.60;11.20;;;;;;;;;;5131406;27;20106;-71
2021/12/21 13:54:24;;;;;;;23.17;13.07;;;;;;;;;;5128398;27;20045;-72
2021/12/21 13:56:51;;;;;;;21.52;12.18;;;;;;;;;;5131566;27;20034;-72
2021/12/21 13:59:18;;;;;;;21.95;11.55;;;;;;;;;;5129953;27;20082;-71
2021/12/21 14:01:46;;;;;;;20.52;10.60;;;;;;;;;;5130526;27;20041;-72
2021/12/21 14:04:15;;;;;;;18.65;10.23;;;;;;;;;;5132345;27;20023;-71
2021/12/21 14:06:41;;;;;;;18.23;9.27;;;;;;;;;;5130478;27;20025;-72
2021/12/21 14:09:10;;;;;;;18.13;9.50;;;;;;;;;;5128763;27;20392;-71
2021/12/21 14:11:37;;;;;;;21.85;9.75;;;;;;;;;;5129471;27;20027;-71
2021/12/21 14:14:10;;;;;;;15.32;9.05;;;;;;;;;;5129587;27;20026;-70
2021/12/21 14:16:39;;;;;;;15.18;8.20;;;;;;;;;;5113526;28;20027;-71
2021/12/21 14:19:07;;;;;;;15.32;8.05;;;;;;;;;;5132580;27;20019;-71
2021/12/21 14:21:37;;;;;;;17.50;9.40;;;;;;;;;;5125464;27;20023;-71
2021/12/21 14:24:11;;;;;;;17.92;9.98;;;;;;;;;;5123967;27;20033;-71
2021/12/21 14:26:52;;;;;;;20.95;10.15;;;;;;;;;;5129927;27;20431;-71
2021/12/21 14:29:22;;;;;;;18.58;11.75;;;;;;;;;;5129562;27;20031;-72
2021/12/21 14:32:00;;;;;;;24.50;13.00;;;;;;;;;;5111024;27;20053;-72
2021/12/21 14:34:29;;;;;;;22.73;12.98;;;;;;;;;;5130342;27;20023;-72
2021/12/21 14:36:56;;;;;;;22.52;12.60;;;;;;;;;;5133174;27;20053;-72
2021/12/21 14:39:25;;;;;;;27.23;16.27;;;;;;;;;;5126392;27;20049;-72
2021/12/21 14:41:53;;;;;;;26.98;14.65;;;;;;;;;;5129458;27;20015;-72
2021/12/21 14:44:24;;;;;;;24.48;14.95;;;;;;;;;;5128829;27;20049;-72
2021/12/21 14:46:51;;;;;;;32.25;13.68;;;;;;;;;;5126302;27;20035;-72
2021/12/21 14:49:23;;;;;;;20.63;10.45;;;;;;;;;;5128387;27;20108;-72
2021/12/21 14:51:51;;;;;;;19.48;9.77;;;;;;;;;;5129907;27;20038;-72
2021/12/21 14:54:25;;;;;;;23.30;9.60;;;;;;;;;;5109462;27;20020;-72
2021/12/21 14:56:52;;;;;;;19.92;9.55;;;;;;;;;;5127886;27;20031;-72
2021/12/21 14:59:29;;;;;;;23.85;11.38;;;;;;;;;;5127979;28;20030;-72
2021/12/21 15:02:02;;;;;;;27.45;11.27;;;;;;;;;;5128479;28;20026;-72
2021/12/21 15:04:29;;;;;;;18.73;10.43;;;;;;;;;;5128865;28;20103;-72
2021/12/21 15:06:57;;;;;;;17.13;9.32;;;;;;;;;;5130442;28;20030;-72
2021/12/21 15:09:23;;;;;;;16.55;9.55;;;;;;;;;;5128089;28;20413;-72
2021/12/21 15:11:52;;;;;;;20.92;9.90;;;;;;;;;;5109838;28;20026;-73
2021/12/21 15:14:19;;;;;;;22.45;10.90;;;;;;;;;;5128987;28;20024;-72
2021/12/21 15:16:45;;;;;;;22.10;11.18;;;;;;;;;;5113259;28;20026;-72
2021/12/21 15:19:12;;;;;;;21.75;12.07;;;;;;;;;;5129794;27;20508;-72
2021/12/21 15:21:38;;;;;;;23.38;12.85;;;;;;;;;;5130424;28;20037;-73
2021/12/21 15:24:05;;;;;;;18.90;13.50;;;;;;;;;;5128222;28;20486;-73
2021/12/21 15:26:31;;;;;;;20.35;11.70;;;;;;;;;;5127428;28;20038;-72
2021/12/21 15:28:58;;;;;;;23.33;12.65;;;;;;;;;;5127940;28;20029;-72
2021/12/21 15:31:24;;;;;;;29.92;14.52;;;;;;;;;;5122235;28;20032;-72
2021/12/21 15:33:51;;;;;;;27.10;15.68;;;;;;;;;;5129377;28;20392;-72
2021/12/21 15:36:17;;;;;;;23.83;14.32;;;;;;;;;;5130615;27;20019;-72
2021/12/21 15:38:44;;;;;;;25.70;14.23;;;;;;;;;;5113055;27;20524;-71
2021/12/21 15:41:11;;;;;;;29.08;16.45;;;;;;;;;;5133059;27;20489;-71
2021/12/21 15:43:40;;;;;;;41.22;20.95;;;;;;;;;;5131557;27;20046;-71
2021/12/21 15:46:07;;;;;;;39.45;18.50;;;;;;;;;;5135182;27;20041;-71
2021/12/21 15:48:34;;;;;;;33.10;16.00;;;;;;;;;;5133453;27;20035;-71